sensor_id;sensor_type;location;lat;lon;timestamp;P1;durP1;ratioP1;P2;durP2;ratioP2
12429;SDS011;6279;42.192;24.326;2024-03-06T00:01:34;57.43;;;35.27;;
12429;SDS011;6279;42.192;24.326;2024-03-06T00:03:59;57.10;;;33.07;;
12429;SDS011;6279;42.192;24.326;2024-03-06T00:06:26;55.83;;;34.13;;
12429;SDS011;6279;42.192;24.326;2024-03-06T00:08:51;56.67;;;34.03;;
12429;SDS011;6279;42.192;24.326;2024-03-06T00:11:17;53.63;;;32.43;;
12429;SDS011;6279;42.192;24.326;2024-03-06T00:13:42;54.60;;;31.53;;
12429;SDS011;6279;42.192;24.326;2024-03-06T00:16:08;55.90;;;31.60;;
12429;SDS011;6279;42.192;24.326;2024-03-06T00:18:33;55.87;;;33.20;;
12429;SDS011;6279;42.192;24.326;2024-03-06T00:20:59;51.77;;;30.83;;
12429;SDS011;6279;42.192;24.326;2024-03-06T00:23:24;57.13;;;33.93;;
12429;SDS011;6279;42.192;24.326;2024-03-06T00:25:50;61.37;;;35.17;;
12429;SDS011;6279;42.192;24.326;2024-03-06T00:28:15;58.73;;;34.53;;
12429;SDS011;6279;42.192;24.326;2024-03-06T00:30:40;58.77;;;33.73;;
12429;SDS011;6279;42.192;24.326;2024-03-06T00:33:07;61.97;;;35.17;;
12429;SDS011;6279;42.192;24.326;2024-03-06T00:35:32;66.03;;;35.80;;
12429;SDS011;6279;42.192;24.326;2024-03-06T00:37:58;55.30;;;35.00;;
12429;SDS011;6279;42.192;24.326;2024-03-06T00:40:27;66.57;;;38.33;;
12429;SDS011;6279;42.192;24.326;2024-03-06T00:42:55;74.87;;;43.27;;
12429;SDS011;6279;42.192;24.326;2024-03-06T00:45:21;81.73;;;45.13;;
12429;SDS011;6279;42.192;24.326;2024-03-06T00:47:47;108.37;;;52.20;;
12429;SDS011;6279;42.192;24.326;2024-03-06T00:50:12;95.47;;;50.97;;
12429;SDS011;6279;42.192;24.326;2024-03-06T00:52:38;91.87;;;47.57;;
12429;SDS011;6279;42.192;24.326;2024-03-06T00:55:03;95.40;;;50.97;;
12429;SDS011;6279;42.192;24.326;2024-03-06T00:57:30;60.30;;;34.80;;
12429;SDS011;6279;42.192;24.326;2024-03-06T00:59:56;61.63;;;34.87;;
12429;SDS011;6279;42.192;24.326;2024-03-06T01:02:21;52.63;;;29.90;;
12429;SDS011;6279;42.192;24.326;2024-03-06T01:04:46;40.77;;;25.40;;
12429;SDS011;6279;42.192;24.326;2024-03-06T01:07:12;42.27;;;23.73;;
12429;SDS011;6279;42.192;24.326;2024-03-06T01:09:37;44.40;;;25.53;;
12429;SDS011;6279;42.192;24.326;2024-03-06T01:12:03;48.83;;;25.87;;
12429;SDS011;6279;42.192;24.326;2024-03-06T01:14:30;43.33;;;25.47;;
12429;SDS011;6279;42.192;24.326;2024-03-06T01:16:56;44.83;;;26.53;;
12429;SDS011;6279;42.192;24.326;2024-03-06T01:19:21;42.50;;;27.60;;
12429;SDS011;6279;42.192;24.326;2024-03-06T01:21:47;48.27;;;29.57;;
12429;SDS011;6279;42.192;24.326;2024-03-06T01:24:13;42.23;;;26.90;;
12429;SDS011;6279;42.192;24.326;2024-03-06T01:26:39;42.37;;;25.37;;
12429;SDS011;6279;42.192;24.326;2024-03-06T01:29:05;40.83;;;24.43;;
12429;SDS011;6279;42.192;24.326;2024-03-06T01:31:31;35.60;;;22.93;;
12429;SDS011;6279;42.192;24.326;2024-03-06T01:33:56;28.23;;;18.37;;
12429;SDS011;6279;42.192;24.326;2024-03-06T01:36:22;33.13;;;20.17;;
12429;SDS011;6279;42.192;24.326;2024-03-06T01:38:47;33.43;;;20.03;;
12429;SDS011;6279;42.192;24.326;2024-03-06T01:41:13;28.57;;;18.43;;
12429;SDS011;6279;42.192;24.326;2024-03-06T01:43:39;28.90;;;18.57;;
12429;SDS011;6279;42.192;24.326;2024-03-06T01:46:05;29.10;;;17.93;;
12429;SDS011;6279;42.192;24.326;2024-03-06T01:48:31;29.30;;;18.30;;
12429;SDS011;6279;42.192;24.326;2024-03-06T01:50:57;26.83;;;18.10;;
12429;SDS011;6279;42.192;24.326;2024-03-06T01:53:24;26.73;;;18.17;;
12429;SDS011;6279;42.192;24.326;2024-03-06T01:55:49;27.67;;;17.50;;
12429;SDS011;6279;42.192;24.326;2024-03-06T01:58:16;25.37;;;17.67;;
12429;SDS011;6279;42.192;24.326;2024-03-06T02:00:42;26.87;;;17.47;;
12429;SDS011;6279;42.192;24.326;2024-03-06T02:03:07;24.97;;;17.23;;
12429;SDS011;6279;42.192;24.326;2024-03-06T02:05:33;24.53;;;16.73;;
12429;SDS011;6279;42.192;24.326;2024-03-06T02:07:59;24.10;;;16.77;;
12429;SDS011;6279;42.192;24.326;2024-03-06T02:10:25;28.77;;;19.03;;
12429;SDS011;6279;42.192;24.326;2024-03-06T02:12:52;26.20;;;17.70;;
12429;SDS011;6279;42.192;24.326;2024-03-06T02:15:19;25.27;;;17.30;;
12429;SDS011;6279;42.192;24.326;2024-03-06T02:17:44;25.43;;;18.23;;
12429;SDS011;6279;42.192;24.326;2024-03-06T02:20:11;26.23;;;17.33;;
12429;SDS011;6279;42.192;24.326;2024-03-06T02:22:39;25.40;;;17.00;;
12429;SDS011;6279;42.192;24.326;2024-03-06T02:25:05;25.10;;;17.07;;
12429;SDS011;6279;42.192;24.326;2024-03-06T02:27:31;26.03;;;17.30;;
12429;SDS011;6279;42.192;24.326;2024-03-06T02:29:57;23.53;;;16.30;;
12429;SDS011;6279;42.192;24.326;2024-03-06T02:32:23;22.77;;;15.70;;
12429;SDS011;6279;42.192;24.326;2024-03-06T02:34:49;26.33;;;17.97;;
12429;SDS011;6279;42.192;24.326;2024-03-06T02:37:15;25.90;;;17.20;;
12429;SDS011;6279;42.192;24.326;2024-03-06T02:39:41;24.63;;;16.80;;
12429;SDS011;6279;42.192;24.326;2024-03-06T02:42:06;25.73;;;15.70;;
12429;SDS011;6279;42.192;24.326;2024-03-06T02:44:32;23.40;;;16.37;;
12429;SDS011;6279;42.192;24.326;2024-03-06T02:46:58;19.53;;;13.57;;
12429;SDS011;6279;42.192;24.326;2024-03-06T02:49:24;20.40;;;14.07;;
12429;SDS011;6279;42.192;24.326;2024-03-06T02:51:49;20.67;;;14.77;;
12429;SDS011;6279;42.192;24.326;2024-03-06T02:54:15;21.37;;;13.97;;
12429;SDS011;6279;42.192;24.326;2024-03-06T02:56:40;21.33;;;13.90;;
12429;SDS011;6279;42.192;24.326;2024-03-06T02:59:06;19.93;;;13.37;;
12429;SDS011;6279;42.192;24.326;2024-03-06T03:01:32;21.13;;;13.73;;
12429;SDS011;6279;42.192;24.326;2024-03-06T03:03:58;20.57;;;13.73;;
12429;SDS011;6279;42.192;24.326;2024-03-06T03:06:23;19.50;;;12.77;;
12429;SDS011;6279;42.192;24.326;2024-03-06T03:08:49;21.47;;;12.70;;
12429;SDS011;6279;42.192;24.326;2024-03-06T03:11:14;18.70;;;13.10;;
12429;SDS011;6279;42.192;24.326;2024-03-06T03:13:40;18.10;;;12.83;;
12429;SDS011;6279;42.192;24.326;2024-03-06T03:16:06;18.37;;;12.87;;
12429;SDS011;6279;42.192;24.326;2024-03-06T03:18:32;17.77;;;11.73;;
12429;SDS011;6279;42.192;24.326;2024-03-06T03:20:57;16.97;;;12.10;;
12429;SDS011;6279;42.192;24.326;2024-03-06T03:23:23;20.47;;;11.37;;
12429;SDS011;6279;42.192;24.326;2024-03-06T03:25:49;17.97;;;12.43;;
12429;SDS011;6279;42.192;24.326;2024-03-06T03:28:15;17.80;;;12.00;;
12429;SDS011;6279;42.192;24.326;2024-03-06T03:30:42;18.60;;;12.00;;
12429;SDS011;6279;42.192;24.326;2024-03-06T03:33:09;15.60;;;11.33;;
12429;SDS011;6279;42.192;24.326;2024-03-06T03:35:34;16.03;;;11.57;;
12429;SDS011;6279;42.192;24.326;2024-03-06T03:38:00;16.00;;;11.63;;
12429;SDS011;6279;42.192;24.326;2024-03-06T03:40:25;15.47;;;11.00;;
12429;SDS011;6279;42.192;24.326;2024-03-06T03:42:51;16.33;;;11.53;;
12429;SDS011;6279;42.192;24.326;2024-03-06T03:45:16;18.23;;;12.87;;
12429;SDS011;6279;42.192;24.326;2024-03-06T03:47:42;15.70;;;10.93;;
12429;SDS011;6279;42.192;24.326;2024-03-06T03:50:08;16.50;;;11.53;;
12429;SDS011;6279;42.192;24.326;2024-03-06T03:52:34;15.90;;;11.13;;
12429;SDS011;6279;42.192;24.326;2024-03-06T03:54:59;17.50;;;11.90;;
12429;SDS011;6279;42.192;24.326;2024-03-06T03:57:25;17.63;;;11.77;;
12429;SDS011;6279;42.192;24.326;2024-03-06T03:59:50;18.77;;;12.40;;
12429;SDS011;6279;42.192;24.326;2024-03-06T04:02:16;18.20;;;11.83;;
12429;SDS011;6279;42.192;24.326;2024-03-06T04:04:42;15.97;;;11.20;;
12429;SDS011;6279;42.192;24.326;2024-03-06T04:07:07;16.33;;;11.23;;
12429;SDS011;6279;42.192;24.326;2024-03-06T04:09:33;18.17;;;11.47;;
12429;SDS011;6279;42.192;24.326;2024-03-06T04:12:02;15.83;;;11.10;;
12429;SDS011;6279;42.192;24.326;2024-03-06T04:14:28;17.53;;;11.70;;
12429;SDS011;6279;42.192;24.326;2024-03-06T04:16:55;15.70;;;11.13;;
12429;SDS011;6279;42.192;24.326;2024-03-06T04:19:20;18.93;;;11.73;;
12429;SDS011;6279;42.192;24.326;2024-03-06T04:21:46;18.33;;;12.77;;
12429;SDS011;6279;42.192;24.326;2024-03-06T04:24:11;20.37;;;13.13;;
12429;SDS011;6279;42.192;24.326;2024-03-06T04:26:37;18.47;;;12.53;;
12429;SDS011;6279;42.192;24.326;2024-03-06T04:29:02;18.13;;;12.73;;
12429;SDS011;6279;42.192;24.326;2024-03-06T04:31:30;16.93;;;12.77;;
12429;SDS011;6279;42.192;24.326;2024-03-06T04:33:56;18.17;;;12.07;;
12429;SDS011;6279;42.192;24.326;2024-03-06T04:36:21;19.73;;;13.40;;
12429;SDS011;6279;42.192;24.326;2024-03-06T04:38:47;18.67;;;12.47;;
12429;SDS011;6279;42.192;24.326;2024-03-06T04:41:12;20.83;;;14.93;;
12429;SDS011;6279;42.192;24.326;2024-03-06T04:43:37;22.07;;;14.77;;
12429;SDS011;6279;42.192;24.326;2024-03-06T04:46:03;20.93;;;15.37;;
12429;SDS011;6279;42.192;24.326;2024-03-06T04:48:29;25.83;;;17.27;;
12429;SDS011;6279;42.192;24.326;2024-03-06T04:50:54;26.67;;;18.47;;
12429;SDS011;6279;42.192;24.326;2024-03-06T04:53:20;28.00;;;18.50;;
12429;SDS011;6279;42.192;24.326;2024-03-06T04:55:45;25.63;;;18.67;;
12429;SDS011;6279;42.192;24.326;2024-03-06T04:58:11;28.17;;;20.13;;
12429;SDS011;6279;42.192;24.326;2024-03-06T05:00:40;32.17;;;22.00;;
12429;SDS011;6279;42.192;24.326;2024-03-06T05:03:05;27.53;;;19.63;;
12429;SDS011;6279;42.192;24.326;2024-03-06T05:05:31;25.97;;;18.07;;
12429;SDS011;6279;42.192;24.326;2024-03-06T05:07:57;25.23;;;17.37;;
12429;SDS011;6279;42.192;24.326;2024-03-06T05:10:23;26.80;;;17.97;;
12429;SDS011;6279;42.192;24.326;2024-03-06T05:12:48;23.83;;;17.97;;
12429;SDS011;6279;42.192;24.326;2024-03-06T05:15:14;25.33;;;18.50;;
12429;SDS011;6279;42.192;24.326;2024-03-06T05:17:39;28.67;;;17.90;;
12429;SDS011;6279;42.192;24.326;2024-03-06T05:20:05;26.00;;;18.83;;
12429;SDS011;6279;42.192;24.326;2024-03-06T05:22:31;28.33;;;20.63;;
12429;SDS011;6279;42.192;24.326;2024-03-06T05:24:56;29.20;;;19.07;;
12429;SDS011;6279;42.192;24.326;2024-03-06T05:27:23;24.33;;;17.93;;
12429;SDS011;6279;42.192;24.326;2024-03-06T05:29:49;34.53;;;23.93;;
12429;SDS011;6279;42.192;24.326;2024-03-06T05:32:14;38.07;;;25.87;;
12429;SDS011;6279;42.192;24.326;2024-03-06T05:34:39;42.17;;;27.27;;
12429;SDS011;6279;42.192;24.326;2024-03-06T05:37:05;38.90;;;25.00;;
12429;SDS011;6279;42.192;24.326;2024-03-06T05:39:31;55.53;;;33.83;;
12429;SDS011;6279;42.192;24.326;2024-03-06T05:42:03;42.20;;;27.17;;
12429;SDS011;6279;42.192;24.326;2024-03-06T05:44:32;29.50;;;19.23;;
12429;SDS011;6279;42.192;24.326;2024-03-06T05:46:58;29.50;;;19.10;;
12429;SDS011;6279;42.192;24.326;2024-03-06T05:49:24;27.20;;;18.97;;
12429;SDS011;6279;42.192;24.326;2024-03-06T05:51:50;27.37;;;16.90;;
12429;SDS011;6279;42.192;24.326;2024-03-06T05:54:16;21.47;;;13.97;;
12429;SDS011;6279;42.192;24.326;2024-03-06T05:56:42;22.50;;;14.80;;
12429;SDS011;6279;42.192;24.326;2024-03-06T05:59:07;40.37;;;25.47;;
12429;SDS011;6279;42.192;24.326;2024-03-06T06:01:33;25.80;;;19.73;;
12429;SDS011;6279;42.192;24.326;2024-03-06T06:03:59;22.00;;;15.70;;
12429;SDS011;6279;42.192;24.326;2024-03-06T06:06:25;16.93;;;13.77;;
12429;SDS011;6279;42.192;24.326;2024-03-06T06:08:51;20.23;;;14.77;;
12429;SDS011;6279;42.192;24.326;2024-03-06T06:11:16;13.87;;;11.77;;
12429;SDS011;6279;42.192;24.326;2024-03-06T06:13:42;18.60;;;13.87;;
12429;SDS011;6279;42.192;24.326;2024-03-06T06:16:07;18.67;;;14.37;;
12429;SDS011;6279;42.192;24.326;2024-03-06T06:18:33;19.63;;;14.20;;
12429;SDS011;6279;42.192;24.326;2024-03-06T06:20:58;23.47;;;16.20;;
12429;SDS011;6279;42.192;24.326;2024-03-06T06:23:24;17.63;;;12.97;;
12429;SDS011;6279;42.192;24.326;2024-03-06T06:25:50;18.80;;;12.90;;
12429;SDS011;6279;42.192;24.326;2024-03-06T06:28:16;14.23;;;11.80;;
12429;SDS011;6279;42.192;24.326;2024-03-06T06:30:41;19.13;;;12.70;;
12429;SDS011;6279;42.192;24.326;2024-03-06T06:33:07;13.10;;;10.30;;
12429;SDS011;6279;42.192;24.326;2024-03-06T06:35:33;12.10;;;9.90;;
12429;SDS011;6279;42.192;24.326;2024-03-06T06:37:59;14.53;;;11.43;;
12429;SDS011;6279;42.192;24.326;2024-03-06T06:40:25;13.70;;;10.97;;
12429;SDS011;6279;42.192;24.326;2024-03-06T06:42:51;12.77;;;9.47;;
12429;SDS011;6279;42.192;24.326;2024-03-06T06:45:16;12.63;;;9.70;;
12429;SDS011;6279;42.192;24.326;2024-03-06T06:47:43;10.50;;;8.60;;
12429;SDS011;6279;42.192;24.326;2024-03-06T06:50:09;11.03;;;8.90;;
12429;SDS011;6279;42.192;24.326;2024-03-06T06:52:34;14.53;;;11.77;;
12429;SDS011;6279;42.192;24.326;2024-03-06T06:55:00;11.77;;;9.53;;
12429;SDS011;6279;42.192;24.326;2024-03-06T06:57:26;11.80;;;9.00;;
12429;SDS011;6279;42.192;24.326;2024-03-06T06:59:51;11.70;;;9.07;;
12429;SDS011;6279;42.192;24.326;2024-03-06T07:02:17;15.20;;;8.87;;
12429;SDS011;6279;42.192;24.326;2024-03-06T07:04:43;11.20;;;9.20;;
12429;SDS011;6279;42.192;24.326;2024-03-06T07:07:08;9.20;;;7.57;;
12429;SDS011;6279;42.192;24.326;2024-03-06T07:09:34;9.17;;;7.20;;
12429;SDS011;6279;42.192;24.326;2024-03-06T07:11:59;8.43;;;6.75;;
12429;SDS011;6279;42.192;24.326;2024-03-06T07:14:25;8.70;;;7.15;;
12429;SDS011;6279;42.192;24.326;2024-03-06T07:16:50;8.77;;;7.10;;
12429;SDS011;6279;42.192;24.326;2024-03-06T07:19:16;7.53;;;6.30;;
12429;SDS011;6279;42.192;24.326;2024-03-06T07:21:42;7.90;;;7.10;;
12429;SDS011;6279;42.192;24.326;2024-03-06T07:24:07;9.48;;;6.75;;
12429;SDS011;6279;42.192;24.326;2024-03-06T07:26:33;12.63;;;7.30;;
12429;SDS011;6279;42.192;24.326;2024-03-06T07:28:59;9.10;;;6.90;;
12429;SDS011;6279;42.192;24.326;2024-03-06T07:31:24;7.85;;;6.85;;
12429;SDS011;6279;42.192;24.326;2024-03-06T07:33:50;8.63;;;7.25;;
12429;SDS011;6279;42.192;24.326;2024-03-06T07:36:16;7.90;;;7.10;;
12429;SDS011;6279;42.192;24.326;2024-03-06T07:38:42;9.55;;;7.20;;
12429;SDS011;6279;42.192;24.326;2024-03-06T07:41:07;8.77;;;7.25;;
12429;SDS011;6279;42.192;24.326;2024-03-06T07:43:33;8.32;;;7.05;;
12429;SDS011;6279;42.192;24.326;2024-03-06T07:45:58;7.20;;;6.47;;
12429;SDS011;6279;42.192;24.326;2024-03-06T07:48:24;6.25;;;5.53;;
12429;SDS011;6279;42.192;24.326;2024-03-06T07:50:49;7.47;;;6.72;;
12429;SDS011;6279;42.192;24.326;2024-03-06T07:53:15;8.77;;;7.22;;
12429;SDS011;6279;42.192;24.326;2024-03-06T07:55:41;9.57;;;7.13;;
12429;SDS011;6279;42.192;24.326;2024-03-06T07:58:06;12.18;;;6.80;;
12429;SDS011;6279;42.192;24.326;2024-03-06T08:00:34;8.65;;;6.90;;
12429;SDS011;6279;42.192;24.326;2024-03-06T08:02:59;9.63;;;6.53;;
12429;SDS011;6279;42.192;24.326;2024-03-06T08:05:26;8.02;;;6.10;;
12429;SDS011;6279;42.192;24.326;2024-03-06T08:07:51;7.22;;;6.32;;
12429;SDS011;6279;42.192;24.326;2024-03-06T08:10:17;7.47;;;6.72;;
12429;SDS011;6279;42.192;24.326;2024-03-06T08:12:44;7.78;;;6.03;;
12429;SDS011;6279;42.192;24.326;2024-03-06T08:15:11;6.57;;;5.97;;
12429;SDS011;6279;42.192;24.326;2024-03-06T08:17:38;9.05;;;8.15;;
12429;SDS011;6279;42.192;24.326;2024-03-06T08:20:04;7.75;;;6.85;;
12429;SDS011;6279;42.192;24.326;2024-03-06T08:22:41;7.82;;;7.03;;
12429;SDS011;6279;42.192;24.326;2024-03-06T08:25:08;7.65;;;6.85;;
12429;SDS011;6279;42.192;24.326;2024-03-06T08:27:34;8.38;;;7.35;;
12429;SDS011;6279;42.192;24.326;2024-03-06T08:30:00;10.02;;;6.95;;
12429;SDS011;6279;42.192;24.326;2024-03-06T08:32:26;7.75;;;6.55;;
12429;SDS011;6279;42.192;24.326;2024-03-06T08:34:52;7.85;;;6.45;;
12429;SDS011;6279;42.192;24.326;2024-03-06T08:37:18;7.22;;;6.53;;
12429;SDS011;6279;42.192;24.326;2024-03-06T08:39:44;8.02;;;6.53;;
12429;SDS011;6279;42.192;24.326;2024-03-06T08:42:10;11.80;;;7.45;;
12429;SDS011;6279;42.192;24.326;2024-03-06T08:44:37;8.18;;;6.95;;
12429;SDS011;6279;42.192;24.326;2024-03-06T08:47:02;6.82;;;6.10;;
12429;SDS011;6279;42.192;24.326;2024-03-06T08:49:28;6.95;;;5.95;;
12429;SDS011;6279;42.192;24.326;2024-03-06T08:51:53;5.82;;;5.15;;
12429;SDS011;6279;42.192;24.326;2024-03-06T08:54:19;8.18;;;5.38;;
12429;SDS011;6279;42.192;24.326;2024-03-06T08:56:44;5.60;;;5.10;;
12429;SDS011;6279;42.192;24.326;2024-03-06T08:59:10;6.45;;;5.10;;
12429;SDS011;6279;42.192;24.326;2024-03-06T09:01:35;5.82;;;5.13;;
12429;SDS011;6279;42.192;24.326;2024-03-06T09:04:01;7.78;;;4.93;;
12429;SDS011;6279;42.192;24.326;2024-03-06T09:06:27;5.38;;;4.88;;
12429;SDS011;6279;42.192;24.326;2024-03-06T09:08:52;5.93;;;5.32;;
12429;SDS011;6279;42.192;24.326;2024-03-06T09:11:17;6.40;;;5.80;;
12429;SDS011;6279;42.192;24.326;2024-03-06T09:13:43;5.95;;;5.35;;
12429;SDS011;6279;42.192;24.326;2024-03-06T09:16:08;8.35;;;5.93;;
12429;SDS011;6279;42.192;24.326;2024-03-06T09:18:34;7.72;;;6.00;;
12429;SDS011;6279;42.192;24.326;2024-03-06T09:20:59;6.38;;;5.78;;
12429;SDS011;6279;42.192;24.326;2024-03-06T09:23:24;6.60;;;5.07;;
12429;SDS011;6279;42.192;24.326;2024-03-06T09:25:51;8.70;;;5.85;;
12429;SDS011;6279;42.192;24.326;2024-03-06T09:28:17;6.93;;;5.78;;
12429;SDS011;6279;42.192;24.326;2024-03-06T09:30:42;5.30;;;4.80;;
12429;SDS011;6279;42.192;24.326;2024-03-06T09:33:08;8.18;;;4.63;;
12429;SDS011;6279;42.192;24.326;2024-03-06T09:35:36;7.65;;;5.03;;
12429;SDS011;6279;42.192;24.326;2024-03-06T09:38:02;5.30;;;4.80;;
12429;SDS011;6279;42.192;24.326;2024-03-06T09:40:27;5.80;;;4.90;;
12429;SDS011;6279;42.192;24.326;2024-03-06T09:42:54;5.45;;;4.93;;
12429;SDS011;6279;42.192;24.326;2024-03-06T09:45:20;5.85;;;5.22;;
12429;SDS011;6279;42.192;24.326;2024-03-06T09:47:45;4.38;;;3.97;;
12429;SDS011;6279;42.192;24.326;2024-03-06T09:50:12;4.72;;;4.20;;
12429;SDS011;6279;42.192;24.326;2024-03-06T09:52:42;4.60;;;4.20;;
12429;SDS011;6279;42.192;24.326;2024-03-06T09:55:11;5.07;;;4.40;;
12429;SDS011;6279;42.192;24.326;2024-03-06T09:57:37;5.85;;;4.75;;
12429;SDS011;6279;42.192;24.326;2024-03-06T10:00:03;4.65;;;4.25;;
12429;SDS011;6279;42.192;24.326;2024-03-06T10:02:34;4.47;;;4.07;;
12429;SDS011;6279;42.192;24.326;2024-03-06T10:05:03;6.95;;;5.05;;
12429;SDS011;6279;42.192;24.326;2024-03-06T10:07:30;5.43;;;4.78;;
12429;SDS011;6279;42.192;24.326;2024-03-06T10:09:56;5.28;;;3.88;;
12429;SDS011;6279;42.192;24.326;2024-03-06T10:12:22;6.57;;;4.30;;
12429;SDS011;6279;42.192;24.326;2024-03-06T10:14:51;6.18;;;4.28;;
12429;SDS011;6279;42.192;24.326;2024-03-06T10:17:20;6.63;;;4.25;;
12429;SDS011;6279;42.192;24.326;2024-03-06T10:19:51;4.75;;;4.00;;
12429;SDS011;6279;42.192;24.326;2024-03-06T10:22:17;7.65;;;4.55;;
12429;SDS011;6279;42.192;24.326;2024-03-06T10:24:44;6.43;;;4.38;;
12429;SDS011;6279;42.192;24.326;2024-03-06T10:27:14;8.00;;;4.70;;
12429;SDS011;6279;42.192;24.326;2024-03-06T10:29:42;5.82;;;4.75;;
12429;SDS011;6279;42.192;24.326;2024-03-06T10:32:08;4.78;;;4.28;;
12429;SDS011;6279;42.192;24.326;2024-03-06T10:34:33;7.63;;;4.90;;
12429;SDS011;6279;42.192;24.326;2024-03-06T10:36:59;5.13;;;4.65;;
12429;SDS011;6279;42.192;24.326;2024-03-06T10:39:27;6.03;;;4.68;;
12429;SDS011;6279;42.192;24.326;2024-03-06T10:41:53;5.93;;;4.00;;
12429;SDS011;6279;42.192;24.326;2024-03-06T10:44:22;6.40;;;4.10;;
12429;SDS011;6279;42.192;24.326;2024-03-06T10:46:55;4.70;;;4.15;;
12429;SDS011;6279;42.192;24.326;2024-03-06T10:49:22;4.80;;;4.03;;
12429;SDS011;6279;42.192;24.326;2024-03-06T10:51:48;4.65;;;3.50;;
12429;SDS011;6279;42.192;24.326;2024-03-06T10:54:15;6.13;;;4.35;;
12429;SDS011;6279;42.192;24.326;2024-03-06T10:56:41;6.43;;;4.43;;
12429;SDS011;6279;42.192;24.326;2024-03-06T10:59:09;5.72;;;4.07;;
12429;SDS011;6279;42.192;24.326;2024-03-06T11:01:37;7.90;;;5.13;;
12429;SDS011;6279;42.192;24.326;2024-03-06T11:04:04;4.88;;;3.97;;
12429;SDS011;6279;42.192;24.326;2024-03-06T11:06:30;9.13;;;4.18;;
12429;SDS011;6279;42.192;24.326;2024-03-06T11:08:56;6.75;;;4.72;;
12429;SDS011;6279;42.192;24.326;2024-03-06T11:11:22;5.57;;;3.72;;
12429;SDS011;6279;42.192;24.326;2024-03-06T11:13:48;7.30;;;5.20;;
12429;SDS011;6279;42.192;24.326;2024-03-06T11:16:14;14.05;;;8.27;;
12429;SDS011;6279;42.192;24.326;2024-03-06T11:23:33;9.65;;;6.85;;
12429;SDS011;6279;42.192;24.326;2024-03-06T11:26:05;6.03;;;4.75;;
12429;SDS011;6279;42.192;24.326;2024-03-06T11:28:32;11.82;;;6.05;;
12429;SDS011;6279;42.192;24.326;2024-03-06T11:31:03;7.00;;;5.50;;
12429;SDS011;6279;42.192;24.326;2024-03-06T11:33:39;9.20;;;4.80;;
12429;SDS011;6279;42.192;24.326;2024-03-06T11:38:50;5.32;;;4.30;;
12429;SDS011;6279;42.192;24.326;2024-03-06T11:41:15;4.82;;;3.92;;
12429;SDS011;6279;42.192;24.326;2024-03-06T11:43:43;8.48;;;4.43;;
12429;SDS011;6279;42.192;24.326;2024-03-06T11:46:09;5.85;;;4.20;;
12429;SDS011;6279;42.192;24.326;2024-03-06T11:48:35;8.43;;;4.95;;
12429;SDS011;6279;42.192;24.326;2024-03-06T11:51:01;5.10;;;4.20;;
12429;SDS011;6279;42.192;24.326;2024-03-06T11:53:30;7.60;;;5.60;;
12429;SDS011;6279;42.192;24.326;2024-03-06T11:55:58;8.82;;;5.55;;
12429;SDS011;6279;42.192;24.326;2024-03-06T11:58:23;10.88;;;5.40;;
12429;SDS011;6279;42.192;24.326;2024-03-06T12:00:49;10.82;;;5.78;;
12429;SDS011;6279;42.192;24.326;2024-03-06T12:03:14;8.30;;;5.72;;
12429;SDS011;6279;42.192;24.326;2024-03-06T12:05:40;9.25;;;5.50;;
12429;SDS011;6279;42.192;24.326;2024-03-06T12:08:06;8.88;;;5.72;;
12429;SDS011;6279;42.192;24.326;2024-03-06T12:10:38;9.83;;;5.53;;
12429;SDS011;6279;42.192;24.326;2024-03-06T12:13:04;8.73;;;5.43;;
12429;SDS011;6279;42.192;24.326;2024-03-06T12:15:30;7.57;;;5.83;;
12429;SDS011;6279;42.192;24.326;2024-03-06T12:17:56;7.27;;;5.50;;
12429;SDS011;6279;42.192;24.326;2024-03-06T12:20:21;6.30;;;4.97;;
12429;SDS011;6279;42.192;24.326;2024-03-06T12:22:50;6.80;;;5.13;;
12429;SDS011;6279;42.192;24.326;2024-03-06T12:25:21;11.40;;;6.10;;
12429;SDS011;6279;42.192;24.326;2024-03-06T12:27:48;7.83;;;5.97;;
12429;SDS011;6279;42.192;24.326;2024-03-06T12:30:17;14.50;;;5.60;;
12429;SDS011;6279;42.192;24.326;2024-03-06T12:33:00;6.80;;;4.47;;
12429;SDS011;6279;42.192;24.326;2024-03-06T12:35:29;8.67;;;4.43;;
12429;SDS011;6279;42.192;24.326;2024-03-06T12:37:55;7.30;;;4.77;;
12429;SDS011;6279;42.192;24.326;2024-03-06T12:40:20;6.27;;;4.57;;
12429;SDS011;6279;42.192;24.326;2024-03-06T12:42:46;6.77;;;4.47;;
12429;SDS011;6279;42.192;24.326;2024-03-06T12:45:12;9.53;;;5.30;;
12429;SDS011;6279;42.192;24.326;2024-03-06T12:47:44;8.67;;;5.83;;
12429;SDS011;6279;42.192;24.326;2024-03-06T12:50:10;8.53;;;5.77;;
12429;SDS011;6279;42.192;24.326;2024-03-06T12:52:37;8.70;;;5.93;;
12429;SDS011;6279;42.192;24.326;2024-03-06T12:55:03;8.57;;;5.70;;
12429;SDS011;6279;42.192;24.326;2024-03-06T12:57:32;8.20;;;6.23;;
12429;SDS011;6279;42.192;24.326;2024-03-06T12:59:57;6.87;;;5.27;;
12429;SDS011;6279;42.192;24.326;2024-03-06T13:02:23;8.60;;;6.10;;
12429;SDS011;6279;42.192;24.326;2024-03-06T13:04:49;7.60;;;6.30;;
12429;SDS011;6279;42.192;24.326;2024-03-06T13:07:15;9.30;;;6.70;;
12429;SDS011;6279;42.192;24.326;2024-03-06T13:09:40;7.67;;;5.83;;
12429;SDS011;6279;42.192;24.326;2024-03-06T13:12:06;7.57;;;5.47;;
12429;SDS011;6279;42.192;24.326;2024-03-06T13:14:32;10.97;;;6.23;;
12429;SDS011;6279;42.192;24.326;2024-03-06T13:16:57;11.23;;;6.20;;
12429;SDS011;6279;42.192;24.326;2024-03-06T13:19:23;11.47;;;6.80;;
12429;SDS011;6279;42.192;24.326;2024-03-06T13:21:49;13.90;;;7.17;;
12429;SDS011;6279;42.192;24.326;2024-03-06T13:24:14;10.50;;;6.83;;
12429;SDS011;6279;42.192;24.326;2024-03-06T13:26:40;10.37;;;7.27;;
12429;SDS011;6279;42.192;24.326;2024-03-06T13:29:05;11.83;;;6.30;;
12429;SDS011;6279;42.192;24.326;2024-03-06T13:31:32;11.13;;;6.27;;
12429;SDS011;6279;42.192;24.326;2024-03-06T13:33:59;9.37;;;5.97;;
12429;SDS011;6279;42.192;24.326;2024-03-06T13:36:25;11.83;;;6.40;;
12429;SDS011;6279;42.192;24.326;2024-03-06T13:38:50;8.70;;;5.90;;
12429;SDS011;6279;42.192;24.326;2024-03-06T13:41:16;8.13;;;6.50;;
12429;SDS011;6279;42.192;24.326;2024-03-06T13:43:41;8.13;;;6.53;;
12429;SDS011;6279;42.192;24.326;2024-03-06T13:46:07;12.23;;;6.80;;
12429;SDS011;6279;42.192;24.326;2024-03-06T13:48:33;9.50;;;6.40;;
12429;SDS011;6279;42.192;24.326;2024-03-06T13:50:59;12.23;;;7.50;;
12429;SDS011;6279;42.192;24.326;2024-03-06T13:53:24;10.60;;;6.70;;
12429;SDS011;6279;42.192;24.326;2024-03-06T13:55:50;10.10;;;6.73;;
12429;SDS011;6279;42.192;24.326;2024-03-06T13:58:15;12.03;;;7.07;;
12429;SDS011;6279;42.192;24.326;2024-03-06T14:00:41;8.97;;;6.30;;
12429;SDS011;6279;42.192;24.326;2024-03-06T14:03:06;11.80;;;6.20;;
12429;SDS011;6279;42.192;24.326;2024-03-06T14:05:31;9.03;;;6.60;;
12429;SDS011;6279;42.192;24.326;2024-03-06T14:07:57;9.70;;;7.07;;
12429;SDS011;6279;42.192;24.326;2024-03-06T14:10:22;8.53;;;6.50;;
12429;SDS011;6279;42.192;24.326;2024-03-06T14:12:49;9.17;;;5.53;;
12429;SDS011;6279;42.192;24.326;2024-03-06T14:15:17;10.43;;;6.90;;
12429;SDS011;6279;42.192;24.326;2024-03-06T14:17:44;9.13;;;5.70;;
12429;SDS011;6279;42.192;24.326;2024-03-06T14:20:10;7.80;;;5.57;;
12429;SDS011;6279;42.192;24.326;2024-03-06T14:22:40;7.47;;;5.50;;
12429;SDS011;6279;42.192;24.326;2024-03-06T14:25:07;8.97;;;6.57;;
12429;SDS011;6279;42.192;24.326;2024-03-06T14:27:32;8.00;;;5.20;;
12429;SDS011;6279;42.192;24.326;2024-03-06T14:30:00;8.60;;;6.10;;
12429;SDS011;6279;42.192;24.326;2024-03-06T14:32:27;8.23;;;5.33;;
12429;SDS011;6279;42.192;24.326;2024-03-06T14:34:53;11.50;;;6.40;;